Weather at Kirkwall Airport

Public forecast

Using degrees Celsius for public forecast. Weather courtesy of forecast.io.

Current aviation weather report (METAR) for Kirkwall Airport

Retrieved 2021/07/24 17:50 UTC (24 minutes ago):

EGPA 241750Z AUTO 13008KT 9999 OVC014/// 14/10 Q1013

Closest aviation forecast (TAF) to Kirkwall Airport

Closest forecast is RAF Lossiemouth, 76.4 nm (141.6 km) S. Retrieved 2021/07/24 18:37 UTC (0 seconds ago):

TAF EGQS 241630Z 2418/2512 35006KT 9999 FEW020 BECMG 2421/2424 BKN008 TEMPO 2421/2509 5000 HZ BKN005 PROB30 2422/2506 0600 FG VV/// PROB30 TEMPO 2506/2509 2000 BR BKN003 BECMG 2509/2512 FEW012